sensor_id;sensor_type;location;lat;lon;timestamp;P1;durP1;ratioP1;P2;durP2;ratioP2
2940;SDS011;1480;51.456;6.670;2022-08-21T00:00:33;7.80;;;2.73;;
2940;SDS011;1480;51.456;6.670;2022-08-21T00:03:00;5.43;;;3.10;;
2940;SDS011;1480;51.456;6.670;2022-08-21T00:05:31;5.77;;;2.90;;
2940;SDS011;1480;51.456;6.670;2022-08-21T00:07:59;4.80;;;3.47;;
2940;SDS011;1480;51.456;6.670;2022-08-21T00:10:26;4.93;;;3.00;;
2940;SDS011;1480;51.456;6.670;2022-08-21T00:12:53;4.13;;;3.00;;
2940;SDS011;1480;51.456;6.670;2022-08-21T00:15:21;5.43;;;2.70;;
2940;SDS011;1480;51.456;6.670;2022-08-21T00:17:51;6.40;;;3.40;;
2940;SDS011;1480;51.456;6.670;2022-08-21T00:20:18;4.80;;;2.87;;
2940;SDS011;1480;51.456;6.670;2022-08-21T00:22:47;4.47;;;2.97;;
2940;SDS011;1480;51.456;6.670;2022-08-21T00:25:15;5.53;;;2.63;;
2940;SDS011;1480;51.456;6.670;2022-08-21T00:27:43;6.40;;;3.20;;
2940;SDS011;1480;51.456;6.670;2022-08-21T00:30:11;8.50;;;3.50;;
2940;SDS011;1480;51.456;6.670;2022-08-21T00:32:40;5.60;;;2.87;;
2940;SDS011;1480;51.456;6.670;2022-08-21T00:35:08;6.27;;;3.13;;
2940;SDS011;1480;51.456;6.670;2022-08-21T00:37:39;4.70;;;2.40;;
2940;SDS011;1480;51.456;6.670;2022-08-21T00:40:10;4.97;;;3.50;;
2940;SDS011;1480;51.456;6.670;2022-08-21T00:42:38;5.83;;;2.60;;
2940;SDS011;1480;51.456;6.670;2022-08-21T00:45:06;6.73;;;3.20;;
2940;SDS011;1480;51.456;6.670;2022-08-21T00:47:34;4.67;;;3.00;;
2940;SDS011;1480;51.456;6.670;2022-08-21T00:50:02;6.50;;;3.90;;
2940;SDS011;1480;51.456;6.670;2022-08-21T00:52:31;5.37;;;3.53;;
2940;SDS011;1480;51.456;6.670;2022-08-21T00:54:59;5.33;;;3.03;;
2940;SDS011;1480;51.456;6.670;2022-08-21T00:57:29;5.10;;;3.10;;
2940;SDS011;1480;51.456;6.670;2022-08-21T01:00:00;6.37;;;3.00;;
2940;SDS011;1480;51.456;6.670;2022-08-21T01:02:30;4.40;;;3.13;;
2940;SDS011;1480;51.456;6.670;2022-08-21T01:04:56;5.90;;;3.20;;
2940;SDS011;1480;51.456;6.670;2022-08-21T01:07:23;7.47;;;2.90;;
2940;SDS011;1480;51.456;6.670;2022-08-21T01:09:50;5.43;;;3.27;;
2940;SDS011;1480;51.456;6.670;2022-08-21T01:12:18;5.30;;;3.00;;
2940;SDS011;1480;51.456;6.670;2022-08-21T01:14:46;6.20;;;3.00;;
2940;SDS011;1480;51.456;6.670;2022-08-21T01:17:13;5.53;;;3.13;;
2940;SDS011;1480;51.456;6.670;2022-08-21T01:19:42;7.67;;;3.30;;
2940;SDS011;1480;51.456;6.670;2022-08-21T01:22:10;4.87;;;3.27;;
2940;SDS011;1480;51.456;6.670;2022-08-21T01:24:38;5.00;;;3.20;;
2940;SDS011;1480;51.456;6.670;2022-08-21T01:27:06;5.13;;;2.80;;
2940;SDS011;1480;51.456;6.670;2022-08-21T01:29:34;4.87;;;3.17;;
2940;SDS011;1480;51.456;6.670;2022-08-21T01:32:06;5.20;;;3.17;;
2940;SDS011;1480;51.456;6.670;2022-08-21T01:34:36;5.23;;;2.87;;
2940;SDS011;1480;51.456;6.670;2022-08-21T01:37:04;6.07;;;3.10;;
2940;SDS011;1480;51.456;6.670;2022-08-21T01:39:33;6.30;;;3.50;;
2940;SDS011;1480;51.456;6.670;2022-08-21T01:42:00;5.50;;;3.40;;
2940;SDS011;1480;51.456;6.670;2022-08-21T01:44:27;7.37;;;3.40;;
2940;SDS011;1480;51.456;6.670;2022-08-21T01:46:55;6.73;;;3.33;;
2940;SDS011;1480;51.456;6.670;2022-08-21T01:49:24;5.33;;;3.17;;
2940;SDS011;1480;51.456;6.670;2022-08-21T01:51:50;5.40;;;3.00;;
2940;SDS011;1480;51.456;6.670;2022-08-21T01:54:18;5.73;;;2.90;;
2940;SDS011;1480;51.456;6.670;2022-08-21T01:56:47;4.73;;;3.70;;
2940;SDS011;1480;51.456;6.670;2022-08-21T01:59:16;12.23;;;4.10;;
2940;SDS011;1480;51.456;6.670;2022-08-21T02:01:43;5.77;;;3.57;;
2940;SDS011;1480;51.456;6.670;2022-08-21T02:04:10;5.30;;;3.30;;
2940;SDS011;1480;51.456;6.670;2022-08-21T02:06:38;4.70;;;3.37;;
2940;SDS011;1480;51.456;6.670;2022-08-21T02:09:07;5.63;;;2.73;;
2940;SDS011;1480;51.456;6.670;2022-08-21T02:11:35;8.03;;;3.73;;
2940;SDS011;1480;51.456;6.670;2022-08-21T02:14:06;4.93;;;3.70;;
2940;SDS011;1480;51.456;6.670;2022-08-21T02:16:34;8.40;;;4.17;;
2940;SDS011;1480;51.456;6.670;2022-08-21T02:19:01;5.93;;;3.70;;
2940;SDS011;1480;51.456;6.670;2022-08-21T02:21:28;4.40;;;3.20;;
2940;SDS011;1480;51.456;6.670;2022-08-21T02:23:55;5.03;;;3.40;;
2940;SDS011;1480;51.456;6.670;2022-08-21T02:26:22;5.17;;;3.03;;
2940;SDS011;1480;51.456;6.670;2022-08-21T02:28:49;4.00;;;3.00;;
2940;SDS011;1480;51.456;6.670;2022-08-21T02:31:18;5.60;;;3.63;;
2940;SDS011;1480;51.456;6.670;2022-08-21T02:33:46;5.40;;;3.60;;
2940;SDS011;1480;51.456;6.670;2022-08-21T02:36:13;5.43;;;3.17;;
2940;SDS011;1480;51.456;6.670;2022-08-21T02:38:41;5.80;;;3.20;;
2940;SDS011;1480;51.456;6.670;2022-08-21T02:41:10;5.37;;;3.10;;
2940;SDS011;1480;51.456;6.670;2022-08-21T02:43:39;6.47;;;3.07;;
2940;SDS011;1480;51.456;6.670;2022-08-21T02:46:07;4.00;;;2.93;;
2940;SDS011;1480;51.456;6.670;2022-08-21T02:48:38;7.33;;;3.77;;
2940;SDS011;1480;51.456;6.670;2022-08-21T02:51:06;6.50;;;4.03;;
2940;SDS011;1480;51.456;6.670;2022-08-21T02:53:35;5.43;;;2.97;;
2940;SDS011;1480;51.456;6.670;2022-08-21T02:56:03;4.47;;;3.30;;
2940;SDS011;1480;51.456;6.670;2022-08-21T02:58:32;6.37;;;3.10;;
2940;SDS011;1480;51.456;6.670;2022-08-21T03:01:03;6.27;;;4.63;;
2940;SDS011;1480;51.456;6.670;2022-08-21T03:03:34;5.33;;;3.43;;
2940;SDS011;1480;51.456;6.670;2022-08-21T03:06:04;5.23;;;3.73;;
2940;SDS011;1480;51.456;6.670;2022-08-21T03:08:33;5.23;;;3.40;;
2940;SDS011;1480;51.456;6.670;2022-08-21T03:11:00;6.03;;;3.40;;
2940;SDS011;1480;51.456;6.670;2022-08-21T03:13:27;5.20;;;3.63;;
2940;SDS011;1480;51.456;6.670;2022-08-21T03:15:54;8.20;;;3.47;;
2940;SDS011;1480;51.456;6.670;2022-08-21T03:18:22;5.50;;;3.80;;
2940;SDS011;1480;51.456;6.670;2022-08-21T03:20:49;8.83;;;4.23;;
2940;SDS011;1480;51.456;6.670;2022-08-21T03:23:17;4.67;;;3.40;;
2940;SDS011;1480;51.456;6.670;2022-08-21T03:25:45;4.20;;;3.30;;
2940;SDS011;1480;51.456;6.670;2022-08-21T03:28:17;7.07;;;4.10;;
2940;SDS011;1480;51.456;6.670;2022-08-21T03:30:47;5.40;;;3.37;;
2940;SDS011;1480;51.456;6.670;2022-08-21T03:33:16;9.23;;;4.27;;
2940;SDS011;1480;51.456;6.670;2022-08-21T03:35:43;6.13;;;3.90;;
2940;SDS011;1480;51.456;6.670;2022-08-21T03:38:14;5.50;;;3.67;;
2940;SDS011;1480;51.456;6.670;2022-08-21T03:40:42;4.33;;;3.33;;
2940;SDS011;1480;51.456;6.670;2022-08-21T03:43:10;5.73;;;3.90;;
2940;SDS011;1480;51.456;6.670;2022-08-21T03:45:37;4.33;;;3.47;;
2940;SDS011;1480;51.456;6.670;2022-08-21T03:48:05;4.97;;;3.77;;
2940;SDS011;1480;51.456;6.670;2022-08-21T03:50:35;4.80;;;3.73;;
2940;SDS011;1480;51.456;6.670;2022-08-21T03:53:04;5.70;;;3.43;;
2940;SDS011;1480;51.456;6.670;2022-08-21T03:55:31;5.90;;;4.07;;
2940;SDS011;1480;51.456;6.670;2022-08-21T03:58:00;5.50;;;4.03;;
2940;SDS011;1480;51.456;6.670;2022-08-21T04:00:27;4.60;;;3.73;;
2940;SDS011;1480;51.456;6.670;2022-08-21T04:02:55;8.30;;;4.13;;
2940;SDS011;1480;51.456;6.670;2022-08-21T04:05:21;5.63;;;3.67;;
2940;SDS011;1480;51.456;6.670;2022-08-21T04:07:58;4.60;;;3.60;;
2940;SDS011;1480;51.456;6.670;2022-08-21T04:10:27;6.40;;;4.30;;
2940;SDS011;1480;51.456;6.670;2022-08-21T04:12:55;5.00;;;3.37;;
2940;SDS011;1480;51.456;6.670;2022-08-21T04:15:24;5.63;;;3.60;;
2940;SDS011;1480;51.456;6.670;2022-08-21T04:17:52;5.43;;;4.07;;
2940;SDS011;1480;51.456;6.670;2022-08-21T04:20:20;7.70;;;4.23;;
2940;SDS011;1480;51.456;6.670;2022-08-21T04:22:48;7.50;;;4.20;;
2940;SDS011;1480;51.456;6.670;2022-08-21T04:25:18;6.50;;;4.50;;
2940;SDS011;1480;51.456;6.670;2022-08-21T04:27:46;5.80;;;4.13;;
2940;SDS011;1480;51.456;6.670;2022-08-21T04:30:14;7.47;;;4.80;;
2940;SDS011;1480;51.456;6.670;2022-08-21T04:32:43;7.43;;;5.20;;
2940;SDS011;1480;51.456;6.670;2022-08-21T04:35:13;8.60;;;4.30;;
2940;SDS011;1480;51.456;6.670;2022-08-21T04:37:41;6.70;;;5.30;;
2940;SDS011;1480;51.456;6.670;2022-08-21T04:40:09;5.63;;;5.13;;
2940;SDS011;1480;51.456;6.670;2022-08-21T04:42:41;6.77;;;4.93;;
2940;SDS011;1480;51.456;6.670;2022-08-21T04:45:14;7.87;;;5.20;;
2940;SDS011;1480;51.456;6.670;2022-08-21T04:47:46;5.70;;;5.10;;
2940;SDS011;1480;51.456;6.670;2022-08-21T04:50:14;5.87;;;5.10;;
2940;SDS011;1480;51.456;6.670;2022-08-21T04:52:52;9.10;;;5.47;;
2940;SDS011;1480;51.456;6.670;2022-08-21T04:55:19;6.97;;;5.23;;
2940;SDS011;1480;51.456;6.670;2022-08-21T04:57:48;11.00;;;6.90;;
2940;SDS011;1480;51.456;6.670;2022-08-21T05:00:19;8.63;;;5.03;;
2940;SDS011;1480;51.456;6.670;2022-08-21T05:02:50;9.90;;;5.97;;
2940;SDS011;1480;51.456;6.670;2022-08-21T05:05:21;7.93;;;5.70;;
2940;SDS011;1480;51.456;6.670;2022-08-21T05:07:48;11.57;;;5.90;;
2940;SDS011;1480;51.456;6.670;2022-08-21T05:10:15;8.20;;;6.10;;
2940;SDS011;1480;51.456;6.670;2022-08-21T05:12:43;6.40;;;5.80;;
2940;SDS011;1480;51.456;6.670;2022-08-21T05:15:11;11.47;;;6.63;;
2940;SDS011;1480;51.456;6.670;2022-08-21T05:17:39;6.40;;;5.07;;
2940;SDS011;1480;51.456;6.670;2022-08-21T05:20:08;8.97;;;6.40;;
2940;SDS011;1480;51.456;6.670;2022-08-21T05:22:36;18.57;;;7.90;;
2940;SDS011;1480;51.456;6.670;2022-08-21T05:25:03;9.40;;;6.10;;
2940;SDS011;1480;51.456;6.670;2022-08-21T05:27:31;7.67;;;5.90;;
2940;SDS011;1480;51.456;6.670;2022-08-21T05:29:58;11.03;;;7.30;;
2940;SDS011;1480;51.456;6.670;2022-08-21T05:32:26;12.17;;;6.93;;
2940;SDS011;1480;51.456;6.670;2022-08-21T05:34:53;9.67;;;7.57;;
2940;SDS011;1480;51.456;6.670;2022-08-21T05:37:22;14.30;;;7.00;;
2940;SDS011;1480;51.456;6.670;2022-08-21T05:39:49;8.83;;;6.37;;
2940;SDS011;1480;51.456;6.670;2022-08-21T05:42:16;9.47;;;6.03;;
2940;SDS011;1480;51.456;6.670;2022-08-21T05:44:43;8.67;;;7.47;;
2940;SDS011;1480;51.456;6.670;2022-08-21T05:47:10;11.33;;;8.00;;
2940;SDS011;1480;51.456;6.670;2022-08-21T05:49:38;11.43;;;6.33;;
2940;SDS011;1480;51.456;6.670;2022-08-21T05:52:04;10.10;;;7.00;;
2940;SDS011;1480;51.456;6.670;2022-08-21T05:54:34;11.60;;;5.60;;
2940;SDS011;1480;51.456;6.670;2022-08-21T05:57:03;14.47;;;6.30;;
2940;SDS011;1480;51.456;6.670;2022-08-21T05:59:30;9.70;;;6.93;;
2940;SDS011;1480;51.456;6.670;2022-08-21T06:01:56;9.80;;;6.43;;
2940;SDS011;1480;51.456;6.670;2022-08-21T06:04:23;8.27;;;6.40;;
2940;SDS011;1480;51.456;6.670;2022-08-21T06:06:50;13.63;;;6.40;;
2940;SDS011;1480;51.456;6.670;2022-08-21T06:09:17;8.10;;;5.67;;
2940;SDS011;1480;51.456;6.670;2022-08-21T06:11:46;18.37;;;6.80;;
2940;SDS011;1480;51.456;6.670;2022-08-21T06:14:13;10.13;;;6.23;;
2940;SDS011;1480;51.456;6.670;2022-08-21T06:16:40;8.57;;;5.10;;
2940;SDS011;1480;51.456;6.670;2022-08-21T06:19:07;8.70;;;6.17;;
2940;SDS011;1480;51.456;6.670;2022-08-21T06:21:34;12.00;;;6.43;;
2940;SDS011;1480;51.456;6.670;2022-08-21T06:24:02;11.13;;;5.13;;
2940;SDS011;1480;51.456;6.670;2022-08-21T06:26:29;12.70;;;5.23;;
2940;SDS011;1480;51.456;6.670;2022-08-21T06:28:58;9.93;;;4.83;;
2940;SDS011;1480;51.456;6.670;2022-08-21T06:31:26;9.70;;;5.10;;
2940;SDS011;1480;51.456;6.670;2022-08-21T06:33:53;6.50;;;5.07;;
2940;SDS011;1480;51.456;6.670;2022-08-21T06:36:21;9.90;;;4.83;;
2940;SDS011;1480;51.456;6.670;2022-08-21T06:38:49;9.20;;;5.00;;
2940;SDS011;1480;51.456;6.670;2022-08-21T06:41:16;10.30;;;5.50;;
2940;SDS011;1480;51.456;6.670;2022-08-21T06:43:43;12.00;;;5.43;;
2940;SDS011;1480;51.456;6.670;2022-08-21T06:46:11;7.13;;;4.63;;
2940;SDS011;1480;51.456;6.670;2022-08-21T06:48:38;5.63;;;3.97;;
2940;SDS011;1480;51.456;6.670;2022-08-21T06:51:05;9.73;;;4.10;;
2940;SDS011;1480;51.456;6.670;2022-08-21T06:53:32;6.00;;;4.37;;
2940;SDS011;1480;51.456;6.670;2022-08-21T06:55:59;9.90;;;4.50;;
2940;SDS011;1480;51.456;6.670;2022-08-21T06:58:26;8.00;;;4.57;;
2940;SDS011;1480;51.456;6.670;2022-08-21T07:00:54;7.97;;;4.23;;
2940;SDS011;1480;51.456;6.670;2022-08-21T07:03:23;7.60;;;4.30;;
2940;SDS011;1480;51.456;6.670;2022-08-21T07:05:52;9.27;;;3.60;;
2940;SDS011;1480;51.456;6.670;2022-08-21T07:08:20;7.80;;;4.33;;
2940;SDS011;1480;51.456;6.670;2022-08-21T07:10:47;7.13;;;3.77;;
2940;SDS011;1480;51.456;6.670;2022-08-21T07:13:15;8.60;;;3.50;;
2940;SDS011;1480;51.456;6.670;2022-08-21T07:15:42;5.40;;;3.60;;
2940;SDS011;1480;51.456;6.670;2022-08-21T07:18:11;10.47;;;4.10;;
2940;SDS011;1480;51.456;6.670;2022-08-21T07:20:40;6.03;;;3.07;;
2940;SDS011;1480;51.456;6.670;2022-08-21T07:23:09;6.37;;;3.20;;
2940;SDS011;1480;51.456;6.670;2022-08-21T07:25:41;6.77;;;2.80;;
2940;SDS011;1480;51.456;6.670;2022-08-21T07:28:07;10.20;;;3.33;;
2940;SDS011;1480;51.456;6.670;2022-08-21T07:30:35;5.70;;;2.90;;
2940;SDS011;1480;51.456;6.670;2022-08-21T07:33:02;5.63;;;2.80;;
2940;SDS011;1480;51.456;6.670;2022-08-21T07:35:28;5.07;;;2.70;;
2940;SDS011;1480;51.456;6.670;2022-08-21T07:37:57;4.93;;;2.10;;
2940;SDS011;1480;51.456;6.670;2022-08-21T07:40:25;9.07;;;2.80;;
2940;SDS011;1480;51.456;6.670;2022-08-21T07:42:52;7.77;;;2.90;;
2940;SDS011;1480;51.456;6.670;2022-08-21T07:45:20;6.67;;;3.03;;
2940;SDS011;1480;51.456;6.670;2022-08-21T07:47:49;7.50;;;2.97;;
2940;SDS011;1480;51.456;6.670;2022-08-21T07:50:17;5.83;;;3.00;;
2940;SDS011;1480;51.456;6.670;2022-08-21T07:52:44;4.30;;;2.37;;
2940;SDS011;1480;51.456;6.670;2022-08-21T07:55:14;6.63;;;2.60;;
2940;SDS011;1480;51.456;6.670;2022-08-21T07:57:45;5.73;;;2.20;;
2940;SDS011;1480;51.456;6.670;2022-08-21T08:00:13;5.17;;;1.70;;
2940;SDS011;1480;51.456;6.670;2022-08-21T08:02:43;10.80;;;2.23;;
2940;SDS011;1480;51.456;6.670;2022-08-21T08:05:11;4.80;;;1.97;;
2940;SDS011;1480;51.456;6.670;2022-08-21T08:07:39;8.70;;;2.40;;
2940;SDS011;1480;51.456;6.670;2022-08-21T08:10:07;4.90;;;2.10;;
2940;SDS011;1480;51.456;6.670;2022-08-21T08:12:37;9.20;;;2.00;;
2940;SDS011;1480;51.456;6.670;2022-08-21T08:15:06;5.33;;;1.70;;
2940;SDS011;1480;51.456;6.670;2022-08-21T08:17:35;6.00;;;1.50;;
2940;SDS011;1480;51.456;6.670;2022-08-21T08:20:03;4.53;;;1.90;;
2940;SDS011;1480;51.456;6.670;2022-08-21T08:22:30;4.23;;;1.90;;
2940;SDS011;1480;51.456;6.670;2022-08-21T08:24:57;7.53;;;2.57;;
2940;SDS011;1480;51.456;6.670;2022-08-21T08:27:24;3.27;;;1.43;;
2940;SDS011;1480;51.456;6.670;2022-08-21T08:29:53;4.90;;;1.90;;
2940;SDS011;1480;51.456;6.670;2022-08-21T08:32:20;4.83;;;1.97;;
2940;SDS011;1480;51.456;6.670;2022-08-21T08:34:47;4.70;;;2.20;;
2940;SDS011;1480;51.456;6.670;2022-08-21T08:37:17;6.20;;;1.87;;
2940;SDS011;1480;51.456;6.670;2022-08-21T08:39:45;8.43;;;1.40;;
2940;SDS011;1480;51.456;6.670;2022-08-21T08:42:14;7.00;;;2.13;;
2940;SDS011;1480;51.456;6.670;2022-08-21T08:44:44;3.70;;;1.70;;
2940;SDS011;1480;51.456;6.670;2022-08-21T08:47:14;3.93;;;1.90;;
2940;SDS011;1480;51.456;6.670;2022-08-21T08:49:46;9.37;;;2.20;;
2940;SDS011;1480;51.456;6.670;2022-08-21T08:52:28;5.90;;;1.80;;
2940;SDS011;1480;51.456;6.670;2022-08-21T08:55:00;10.50;;;1.90;;
2940;SDS011;1480;51.456;6.670;2022-08-21T08:57:30;6.03;;;1.87;;
2940;SDS011;1480;51.456;6.670;2022-08-21T08:59:59;4.50;;;1.73;;
2940;SDS011;1480;51.456;6.670;2022-08-21T09:02:29;4.50;;;1.90;;
2940;SDS011;1480;51.456;6.670;2022-08-21T09:04:58;7.77;;;2.53;;
2940;SDS011;1480;51.456;6.670;2022-08-21T09:07:30;3.47;;;1.70;;
2940;SDS011;1480;51.456;6.670;2022-08-21T09:10:10;4.83;;;1.87;;
2940;SDS011;1480;51.456;6.670;2022-08-21T09:12:44;4.43;;;1.50;;
2940;SDS011;1480;51.456;6.670;2022-08-21T09:15:20;5.03;;;1.60;;
2940;SDS011;1480;51.456;6.670;2022-08-21T09:18:09;6.30;;;1.60;;
2940;SDS011;1480;51.456;6.670;2022-08-21T09:20:55;6.37;;;2.00;;
2940;SDS011;1480;51.456;6.670;2022-08-21T09:23:30;9.20;;;2.00;;
2940;SDS011;1480;51.456;6.670;2022-08-21T09:26:11;6.83;;;2.03;;
2940;SDS011;1480;51.456;6.670;2022-08-21T09:28:39;6.10;;;2.53;;
2940;SDS011;1480;51.456;6.670;2022-08-21T09:31:08;6.43;;;2.50;;
2940;SDS011;1480;51.456;6.670;2022-08-21T09:33:43;8.43;;;4.60;;
2940;SDS011;1480;51.456;6.670;2022-08-21T09:36:10;5.13;;;2.07;;
2940;SDS011;1480;51.456;6.670;2022-08-21T09:38:37;6.40;;;1.80;;
2940;SDS011;1480;51.456;6.670;2022-08-21T09:41:05;5.37;;;1.90;;
2940;SDS011;1480;51.456;6.670;2022-08-21T09:43:34;3.93;;;1.50;;
2940;SDS011;1480;51.456;6.670;2022-08-21T09:46:04;6.73;;;2.13;;
2940;SDS011;1480;51.456;6.670;2022-08-21T09:48:39;7.27;;;2.77;;
2940;SDS011;1480;51.456;6.670;2022-08-21T09:51:10;4.80;;;1.70;;
2940;SDS011;1480;51.456;6.670;2022-08-21T09:53:41;6.03;;;1.73;;
2940;SDS011;1480;51.456;6.670;2022-08-21T09:59:24;6.97;;;1.80;;
2940;SDS011;1480;51.456;6.670;2022-08-21T10:01:56;5.87;;;2.20;;
2940;SDS011;1480;51.456;6.670;2022-08-21T10:04:27;6.83;;;1.40;;
2940;SDS011;1480;51.456;6.670;2022-08-21T10:07:06;5.07;;;1.70;;
2940;SDS011;1480;51.456;6.670;2022-08-21T10:09:34;4.37;;;1.80;;
2940;SDS011;1480;51.456;6.670;2022-08-21T10:12:07;4.33;;;1.80;;
2940;SDS011;1480;51.456;6.670;2022-08-21T10:14:42;4.13;;;1.90;;
2940;SDS011;1480;51.456;6.670;2022-08-21T10:17:17;3.80;;;1.67;;
2940;SDS011;1480;51.456;6.670;2022-08-21T10:19:53;2.57;;;1.20;;
2940;SDS011;1480;51.456;6.670;2022-08-21T10:22:32;5.53;;;1.30;;
2940;SDS011;1480;51.456;6.670;2022-08-21T10:25:06;3.63;;;1.57;;
2940;SDS011;1480;51.456;6.670;2022-08-21T10:27:42;3.83;;;1.50;;
2940;SDS011;1480;51.456;6.670;2022-08-21T10:30:18;4.07;;;1.80;;
2940;SDS011;1480;51.456;6.670;2022-08-21T10:33:03;3.80;;;1.40;;
2940;SDS011;1480;51.456;6.670;2022-08-21T10:35:43;2.20;;;1.23;;
2940;SDS011;1480;51.456;6.670;2022-08-21T10:41:26;3.63;;;1.50;;
2940;SDS011;1480;51.456;6.670;2022-08-21T10:44:08;3.97;;;1.50;;
2940;SDS011;1480;51.456;6.670;2022-08-21T10:46:48;2.80;;;1.27;;
2940;SDS011;1480;51.456;6.670;2022-08-21T10:49:21;3.50;;;1.53;;
2940;SDS011;1480;51.456;6.670;2022-08-21T10:51:55;4.50;;;1.40;;
2940;SDS011;1480;51.456;6.670;2022-08-21T10:54:41;4.33;;;1.50;;
2940;SDS011;1480;51.456;6.670;2022-08-21T10:57:19;5.50;;;1.27;;
2940;SDS011;1480;51.456;6.670;2022-08-21T10:59:55;3.20;;;1.27;;
2940;SDS011;1480;51.456;6.670;2022-08-21T11:02:27;9.30;;;1.77;;
2940;SDS011;1480;51.456;6.670;2022-08-21T11:05:01;2.93;;;1.30;;
2940;SDS011;1480;51.456;6.670;2022-08-21T11:07:32;3.70;;;1.23;;
2940;SDS011;1480;51.456;6.670;2022-08-21T11:10:04;3.50;;;1.50;;
2940;SDS011;1480;51.456;6.670;2022-08-21T11:12:41;2.73;;;1.10;;
2940;SDS011;1480;51.456;6.670;2022-08-21T11:15:14;3.40;;;1.20;;
2940;SDS011;1480;51.456;6.670;2022-08-21T11:17:52;6.37;;;1.30;;
2940;SDS011;1480;51.456;6.670;2022-08-21T11:20:27;4.87;;;1.17;;
2940;SDS011;1480;51.456;6.670;2022-08-21T11:23:01;3.30;;;1.10;;
2940;SDS011;1480;51.456;6.670;2022-08-21T11:25:41;3.03;;;1.00;;
2940;SDS011;1480;51.456;6.670;2022-08-21T11:28:15;2.93;;;1.47;;
2940;SDS011;1480;51.456;6.670;2022-08-21T11:30:50;2.43;;;1.10;;
2940;SDS011;1480;51.456;6.670;2022-08-21T11:33:29;2.67;;;1.30;;
2940;SDS011;1480;51.456;6.670;2022-08-21T11:36:10;2.63;;;1.30;;
2940;SDS011;1480;51.456;6.670;2022-08-21T11:38:42;3.23;;;1.10;;
2940;SDS011;1480;51.456;6.670;2022-08-21T11:41:16;6.60;;;1.57;;
2940;SDS011;1480;51.456;6.670;2022-08-21T11:43:52;3.53;;;1.63;;
2940;SDS011;1480;51.456;6.670;2022-08-21T11:46:25;2.43;;;0.90;;
2940;SDS011;1480;51.456;6.670;2022-08-21T11:49:02;2.00;;;1.10;;
2940;SDS011;1480;51.456;6.670;2022-08-21T11:51:39;4.23;;;1.20;;
2940;SDS011;1480;51.456;6.670;2022-08-21T11:54:13;3.70;;;0.97;;
2940;SDS011;1480;51.456;6.670;2022-08-21T11:56:51;2.47;;;1.10;;
2940;SDS011;1480;51.456;6.670;2022-08-21T11:59:23;3.70;;;1.30;;
2940;SDS011;1480;51.456;6.670;2022-08-21T12:01:56;4.60;;;1.33;;
2940;SDS011;1480;51.456;6.670;2022-08-21T12:04:25;1.90;;;1.00;;
2940;SDS011;1480;51.456;6.670;2022-08-21T12:06:54;2.57;;;1.17;;
2940;SDS011;1480;51.456;6.670;2022-08-21T12:09:29;4.83;;;1.43;;
2940;SDS011;1480;51.456;6.670;2022-08-21T12:12:01;7.13;;;1.50;;
2940;SDS011;1480;51.456;6.670;2022-08-21T12:14:38;6.17;;;1.70;;
2940;SDS011;1480;51.456;6.670;2022-08-21T12:17:17;2.77;;;1.07;;
2940;SDS011;1480;51.456;6.670;2022-08-21T12:19:56;2.77;;;1.07;;
2940;SDS011;1480;51.456;6.670;2022-08-21T12:22:34;5.57;;;1.40;;
2940;SDS011;1480;51.456;6.670;2022-08-21T12:25:03;2.23;;;1.00;;
2940;SDS011;1480;51.456;6.670;2022-08-21T12:27:41;6.23;;;1.97;;
2940;SDS011;1480;51.456;6.670;2022-08-21T12:30:21;4.27;;;1.23;;
2940;SDS011;1480;51.456;6.670;2022-08-21T12:32:54;5.70;;;1.50;;
2940;SDS011;1480;51.456;6.670;2022-08-21T12:35:24;6.10;;;1.30;;
2940;SDS011;1480;51.456;6.670;2022-08-21T12:37:56;5.27;;;1.40;;
2940;SDS011;1480;51.456;6.670;2022-08-21T12:40:31;5.33;;;1.33;;
2940;SDS011;1480;51.456;6.670;2022-08-21T12:43:03;4.10;;;1.63;;
2940;SDS011;1480;51.456;6.670;2022-08-21T12:45:34;3.40;;;1.47;;
2940;SDS011;1480;51.456;6.670;2022-08-21T12:48:07;3.93;;;1.40;;
2940;SDS011;1480;51.456;6.670;2022-08-21T12:50:41;4.13;;;1.40;;
2940;SDS011;1480;51.456;6.670;2022-08-21T12:53:12;4.33;;;1.83;;
2940;SDS011;1480;51.456;6.670;2022-08-21T12:55:49;8.83;;;5.60;;
2940;SDS011;1480;51.456;6.670;2022-08-21T12:58:17;3.13;;;1.50;;
2940;SDS011;1480;51.456;6.670;2022-08-21T13:00:49;12.43;;;4.90;;
2940;SDS011;1480;51.456;6.670;2022-08-21T13:03:17;4.93;;;3.10;;
2940;SDS011;1480;51.456;6.670;2022-08-21T13:05:45;3.53;;;1.23;;
2940;SDS011;1480;51.456;6.670;2022-08-21T13:08:12;5.00;;;2.00;;
2940;SDS011;1480;51.456;6.670;2022-08-21T13:10:41;5.73;;;1.50;;
2940;SDS011;1480;51.456;6.670;2022-08-21T13:13:19;3.37;;;1.40;;
2940;SDS011;1480;51.456;6.670;2022-08-21T13:15:49;6.40;;;1.50;;
2940;SDS011;1480;51.456;6.670;2022-08-21T13:18:23;7.20;;;1.90;;
2940;SDS011;1480;51.456;6.670;2022-08-21T13:21:01;5.43;;;1.60;;
2940;SDS011;1480;51.456;6.670;2022-08-21T13:23:30;4.90;;;1.67;;
2940;SDS011;1480;51.456;6.670;2022-08-21T13:25:57;3.10;;;1.20;;
2940;SDS011;1480;51.456;6.670;2022-08-21T13:28:31;4.60;;;1.50;;
2940;SDS011;1480;51.456;6.670;2022-08-21T13:31:00;4.83;;;1.10;;
2940;SDS011;1480;51.456;6.670;2022-08-21T13:33:27;5.70;;;1.63;;
2940;SDS011;1480;51.456;6.670;2022-08-21T13:36:01;4.60;;;1.40;;
2940;SDS011;1480;51.456;6.670;2022-08-21T13:38:34;4.03;;;1.50;;
2940;SDS011;1480;51.456;6.670;2022-08-21T13:41:05;12.00;;;1.47;;
2940;SDS011;1480;51.456;6.670;2022-08-21T13:43:36;6.27;;;1.60;;
2940;SDS011;1480;51.456;6.670;2022-08-21T13:46:07;2.47;;;1.03;;
2940;SDS011;1480;51.456;6.670;2022-08-21T13:48:36;3.97;;;1.60;;
2940;SDS011;1480;51.456;6.670;2022-08-21T13:51:04;4.20;;;1.50;;
2940;SDS011;1480;51.456;6.670;2022-08-21T13:53:32;3.73;;;1.77;;
2940;SDS011;1480;51.456;6.670;2022-08-21T13:56:01;8.20;;;2.37;;
2940;SDS011;1480;51.456;6.670;2022-08-21T13:58:41;4.87;;;1.87;;
2940;SDS011;1480;51.456;6.670;2022-08-21T14:01:17;4.10;;;1.20;;
2940;SDS011;1480;51.456;6.670;2022-08-21T14:03:47;2.30;;;1.20;;
2940;SDS011;1480;51.456;6.670;2022-08-21T14:06:17;4.27;;;1.57;;
2940;SDS011;1480;51.456;6.670;2022-08-21T14:08:47;3.97;;;1.40;;
2940;SDS011;1480;51.456;6.670;2022-08-21T14:11:17;4.67;;;1.33;;
2940;SDS011;1480;51.456;6.670;2022-08-21T14:13:45;5.87;;;1.60;;
2940;SDS011;1480;51.456;6.670;2022-08-21T14:16:17;2.80;;;1.60;;
2940;SDS011;1480;51.456;6.670;2022-08-21T14:18:51;3.40;;;1.37;;
2940;SDS011;1480;51.456;6.670;2022-08-21T14:21:28;3.37;;;1.40;;
2940;SDS011;1480;51.456;6.670;2022-08-21T14:24:04;6.40;;;1.50;;
2940;SDS011;1480;51.456;6.670;2022-08-21T14:26:34;3.90;;;1.10;;
2940;SDS011;1480;51.456;6.670;2022-08-21T14:29:02;4.17;;;1.37;;
2940;SDS011;1480;51.456;6.670;2022-08-21T14:31:35;4.07;;;1.57;;
2940;SDS011;1480;51.456;6.670;2022-08-21T14:34:03;3.50;;;1.10;;
2940;SDS011;1480;51.456;6.670;2022-08-21T14:36:30;3.80;;;1.60;;
2940;SDS011;1480;51.456;6.670;2022-08-21T14:38:57;3.77;;;1.50;;
2940;SDS011;1480;51.456;6.670;2022-08-21T14:41:24;4.27;;;1.40;;
2940;SDS011;1480;51.456;6.670;2022-08-21T14:43:54;3.43;;;1.40;;
2940;SDS011;1480;51.456;6.670;2022-08-21T14:46:23;4.40;;;1.50;;
2940;SDS011;1480;51.456;6.670;2022-08-21T14:48:54;5.70;;;1.20;;
2940;SDS011;1480;51.456;6.670;2022-08-21T14:51:21;4.70;;;1.50;;
2940;SDS011;1480;51.456;6.670;2022-08-21T14:53:48;3.77;;;1.87;;
2940;SDS011;1480;51.456;6.670;2022-08-21T14:56:15;4.83;;;1.57;;
2940;SDS011;1480;51.456;6.670;2022-08-21T14:58:48;2.53;;;1.27;;
2940;SDS011;1480;51.456;6.670;2022-08-21T15:01:17;4.30;;;1.63;;
2940;SDS011;1480;51.456;6.670;2022-08-21T15:03:45;8.70;;;2.53;;
2940;SDS011;1480;51.456;6.670;2022-08-21T15:06:15;3.63;;;1.40;;
2940;SDS011;1480;51.456;6.670;2022-08-21T15:08:43;6.10;;;2.10;;
2940;SDS011;1480;51.456;6.670;2022-08-21T15:11:11;3.60;;;1.50;;
2940;SDS011;1480;51.456;6.670;2022-08-21T15:13:41;5.50;;;2.10;;
2940;SDS011;1480;51.456;6.670;2022-08-21T15:16:09;3.13;;;1.37;;
2940;SDS011;1480;51.456;6.670;2022-08-21T15:18:38;3.27;;;1.73;;
2940;SDS011;1480;51.456;6.670;2022-08-21T15:21:06;4.73;;;1.43;;
2940;SDS011;1480;51.456;6.670;2022-08-21T15:23:35;5.40;;;1.30;;
2940;SDS011;1480;51.456;6.670;2022-08-21T15:26:02;2.83;;;1.20;;
2940;SDS011;1480;51.456;6.670;2022-08-21T15:28:29;4.80;;;1.50;;
2940;SDS011;1480;51.456;6.670;2022-08-21T15:30:57;4.10;;;1.77;;
2940;SDS011;1480;51.456;6.670;2022-08-21T15:33:25;6.93;;;1.80;;
2940;SDS011;1480;51.456;6.670;2022-08-21T15:35:52;5.93;;;2.17;;
2940;SDS011;1480;51.456;6.670;2022-08-21T15:38:19;2.60;;;1.50;;